Flight Track Log - Related Links

Times and Time Zones

All times are in EDT time to prevent confusion due to time zone crossing. See the EJA396 flight status page for this flight to view local times or setup timezone preferences in your user account.

Time Position Orientation Groundspeed Altitude Reporting Facility
EDT Latitude Longitude Course Direction KTS MPH feet Rate Location/Type
Wed 09:29:21 AM 28.8000 -81.1500 74° East 240 276 3,600  Level Orlando TRACON
Wed 09:31:48 AM 28.9072 -81.2347 325° Northwest 218 251 5,800 1,362 Climbing Jacksonville Center
Wed 09:32:48 AM 28.9561 -81.3003 310° West 250 288 8,300 1,550 Climbing Jacksonville Center
Wed 09:33:48 AM 29.0069 -81.3708 309° West 274 315 8,900 1,000 Climbing Jacksonville Center
Wed 09:34:48 AM 29.0864 -81.3886 349° North 274 315 10,300 2,300 Climbing Jacksonville Center
Wed 09:35:48 AM 29.1764 -81.3967 356° North 296 341 13,500 3,100 Climbing Jacksonville Center
Wed 09:36:48 AM 29.2725 -81.4069 355° North 318 366 16,500 2,750 Climbing Jacksonville Center
Wed 09:37:48 AM 29.3708 -81.4153 356° North 342 394 19,000 2,500 Climbing Jacksonville Center
Wed 09:38:48 AM 29.4711 -81.4281 354° North 353 406 21,500 2,500 Climbing Jacksonville Center
Wed 09:39:48 AM 29.5733 -81.4358 356° North 358 412 24,000 6,750 Climbing Jacksonville Center
Wed 09:40:48 AM 29.6800 -81.4464 355° North 370 426 35,000 2,500 Climbing Jacksonville Center
Wed 09:41:48 AM 29.7844 -81.4592 354° North 370 426 29,000 -2,000 Descending Jacksonville Center
Wed 09:42:48 AM 29.8889 -81.4672 356° North 370 426 31,000 1,750 Climbing Jacksonville Center
Wed 09:43:48 AM 29.9978 -81.4775 355° North 376 433 32,500 1,500 Climbing Jacksonville Center
Wed 09:44:48 AM 30.1083 -81.4881 355° North 387 445 34,000 1,250 Climbing Jacksonville Center
Wed 09:45:48 AM 30.2214 -81.4983 356° North 397 457 35,000 496 Climbing Jacksonville Center
Wed 09:46:49 AM 30.3425 -81.5086 356° North 415 478 35,000  Level Jacksonville Center
Wed 09:47:48 AM 30.4739 -81.4994 North 443 510 35,000  Level Jacksonville Center
Wed 09:48:48 AM 30.6033 -81.4903 North 456 525 35,000  Level Jacksonville Center
Wed 09:49:48 AM 30.7325 -81.4786 North 456 525 35,000 550 Level Jacksonville Center
Wed 09:50:48 AM 30.8558 -81.4722 North 456 525 36,100 1,300 Climbing Jacksonville Center
Wed 09:51:48 AM 30.9808 -81.4606 North 456 525 37,600 1,650 Climbing Jacksonville Center
Wed 09:52:48 AM 31.1122 -81.4342 10° North 445 512 39,400 1,500 Climbing Jacksonville Center
Wed 09:53:48 AM 31.2178 -81.3742 26° Northeast 416 479 40,600 800 Climbing Jacksonville Center
Wed 09:54:48 AM 31.3217 -81.3192 24° Northeast 410 472 41,000 200 Climbing Jacksonville Center
Wed 09:55:48 AM 31.4192 -81.2614 27° Northeast 420 483 41,000  Level Jacksonville Center
Wed 09:56:48 AM 31.5414 -81.1958 25° Northeast 431 496 41,000  Level Jacksonville Center
Wed 09:57:48 AM 31.6553 -81.1303 26° Northeast 441 507 41,000  Level Jacksonville Center
Wed 09:58:48 AM 31.7569 -81.0747 25° Northeast 448 516 41,000  Level Jacksonville Center
Wed 09:59:48 AM 31.8811 -81.0061 25° Northeast 442 509 41,000  Level Jacksonville Center
Wed 10:00:48 AM 31.9847 -80.9503 25° Northeast 447 514 41,000  Level Jacksonville Center
Wed 10:01:48 AM 32.1089 -80.8789 26° Northeast 447 514 41,000  Level Jacksonville Center
Wed 10:02:48 AM 32.2225 -80.8175 25° Northeast 447 514 41,000  Level Jacksonville Center
Wed 10:03:48 AM 32.3261 -80.7611 25° Northeast 447 514 41,000  Level Jacksonville Center
Wed 10:04:48 AM 32.4378 -80.6994 25° Northeast 441 507 41,000  Level Jacksonville Center
Wed 10:05:48 AM 32.5536 -80.6400 23° Northeast 441 507 41,000  Level Jacksonville Center
Wed 10:06:48 AM 32.6694 -80.5778 24° Northeast 441 507 41,000  Level Jacksonville Center
Wed 10:07:48 AM 32.7850 -80.5156 24° Northeast 441 507 41,000  Level Jacksonville Center
Wed 10:08:48 AM 32.9031 -80.4556 23° Northeast 446 513 41,000  Level Jacksonville Center
Wed 10:09:48 AM 33.0308 -80.3828 26° Northeast 454 522 41,000  Level Jacksonville Center
Wed 10:10:48 AM 33.1486 -80.3197 24° Northeast 455 524 41,000  Level Jacksonville Center
Wed 10:11:48 AM 33.2603 -80.2669 22° Northeast 462 532 41,000  Level Jacksonville Center
Wed 10:12:48 AM 33.3881 -80.1961 25° Northeast 462 532 41,000  Level Jacksonville Center
Wed 10:13:48 AM 33.5058 -80.1328 24° Northeast 457 526 41,000  Level Jacksonville Center
Wed 10:14:48 AM 33.6211 -80.0692 25° Northeast 457 526 41,000  Level Jacksonville Center
Wed 10:15:48 AM 33.7408 -80.0028 25° Northeast 457 526 41,000  Level Jacksonville Center
Wed 10:16:48 AM 33.8581 -79.9389 24° Northeast 457 526 41,000  Level Jacksonville Center
Wed 10:17:48 AM 33.9778 -79.8750 24° Northeast 457 526 41,000  Level Jacksonville Center
Wed 10:18:48 AM 34.0950 -79.8081 25° Northeast 457 526 41,000  Level Jacksonville Center
Wed 10:19:48 AM 34.2144 -79.7436 24° Northeast 457 526 41,000  Level Jacksonville Center
Wed 10:21:53 AM 34.4442 -79.6136 25° Northeast 473 544 41,000  Level Washington Center
Wed 10:22:52 AM 34.5675 -79.5467 24° Northeast 473 544 41,000  Level Washington Center
Wed 10:23:52 AM 34.6886 -79.4792 25° Northeast 473 544 41,000  Level Washington Center
Wed 10:24:54 AM 34.8097 -79.4117 25° Northeast 473 544 41,000  Level Washington Center
Wed 10:25:54 AM 34.9308 -79.3464 24° Northeast 468 539 41,000  Level Washington Center
Wed 10:26:52 AM 35.0497 -79.2783 25° Northeast 468 539 41,000  Level Washington Center
Wed 10:27:53 AM 35.1731 -79.2078 25° Northeast 468 539 41,000 -49 Level Washington Center
Wed 10:28:54 AM 35.2961 -79.1394 24° Northeast 468 539 40,900 -496 Descending Washington Center
Wed 10:29:54 AM 35.4192 -79.0711 24° Northeast 485 558 40,000 -1,059 Descending Washington Center
Wed 10:30:53 AM 35.5506 -78.9978 24° Northeast 467 537 38,800 -1,513 Descending Washington Center
Wed 10:31:53 AM 35.6736 -78.9286 25° Northeast 467 537 37,000 -1,835 Descending Washington Center
Wed 10:32:54 AM 35.7986 -78.8547 26° Northeast 472 543 35,100 -1,513 Descending Washington Center
Wed 10:33:52 AM 35.9194 -78.7853 25° Northeast 477 549 34,000 -1,563 Descending Washington Center
Wed 10:34:53 AM 36.0403 -78.7131 26° Northeast 472 543 32,000 -2,066 Descending Washington Center
Wed 10:35:54 AM 36.1631 -78.6433 25° Northeast 472 543 29,800 -2,319 Descending Washington Center
Wed 10:36:52 AM 36.2881 -78.5683 26° Northeast 477 549 27,400 -1,412 Descending Washington Center
Wed 10:37:53 AM 36.4108 -78.4981 25° Northeast 477 549 27,000 -198 Descending Washington Center
Wed 10:38:53 AM 36.5336 -78.4250 26° Northeast 477 549 27,000  Level Washington Center
Wed 10:39:54 AM 36.6583 -78.3519 25° Northeast 483 556 27,000  Level Washington Center
Wed 10:40:52 AM 36.7706 -78.2833 26° Northeast 483 556 27,000  Level Washington Center
Wed 10:41:52 AM 36.8931 -78.2122 25° Northeast 483 556 27,000 -50 Level Washington Center
Wed 10:42:53 AM 37.0178 -78.1358 26° Northeast 494 568 26,900 -639 Descending Washington Center
Wed 10:43:54 AM 37.1425 -78.0619 25° Northeast 489 563 25,700 -1,361 Descending Washington Center
Wed 10:44:52 AM 37.2608 -77.9900 26° Northeast 478 550 24,200 -1,513 Descending Washington Center
Wed 10:45:53 AM 37.3747 -77.9203 26° Northeast 465 535 22,700 -1,091 Descending Washington Center
Wed 10:46:53 AM 37.4867 -77.8531 25° Northeast 454 522 22,000 -347 Descending Washington Center
Wed 10:47:54 AM 37.6006 -77.7858 25° Northeast 449 517 22,000 -555 Level Washington Center
Wed 10:48:52 AM 37.7122 -77.7208 25° Northeast 444 511 20,900 -1,966 Descending Washington Center
Wed 10:49:53 AM 37.8156 -77.6606 25° Northeast 433 498 18,100 -2,628 Descending Washington Center
Wed 10:50:53 AM 37.9144 -77.6000 26° Northeast 405 466 15,600 -2,300 Descending Washington Center
Wed 10:51:53 AM 38.0092 -77.5447 25° Northeast 390 449 13,500 -2,033 Descending Washington Center
Wed 10:52:54 AM 38.0997 -77.4969 23° Northeast 365 420 11,500 -1,765 Descending Washington Center
Wed 10:53:52 AM 38.1881 -77.4436 25° Northeast 351 404 10,000 -958 Descending Washington Center
Wed 10:54:53 AM 38.2597 -77.4031 24° Northeast 318 366 9,600 -893 Descending Washington Center
Wed 10:55:53 AM 38.3186 -77.3675 25° Northeast 269 310 8,200 -1,438 Descending Washington Center
Wed 10:56:54 AM 38.3775 -77.3397 20° North 237 273 6,700 -1,488 Descending Washington Center
Wed 10:57:54 AM 38.4333 -77.3703 337° Northwest 202 232 5,200 -1,373 Descending Washington Center
Wed 10:58:52 AM 38.4869 -77.4086 331° Northwest 202 232 4,000 -1,017 Descending Washington Center
Wed 10:59:52 AM 38.5406 -77.4469 331° Northwest 212 244 3,200 -496 Descending Washington Center
Wed 11:00:53 AM 38.5864 -77.4456 North 212 244 3,000 -101 Descending Washington Center
Wed 11:01:51 AM 38.6500 -77.4333 North 174 200 3,000  Level Potomac TRACON
Wed 11:02:52 AM 38.7000 -77.4333 360° North 176 203 3,000  Level Potomac TRACON
Wed 11:03:52 AM 38.7500 -77.4333 360° North 171 197 3,000 -100 Level Potomac TRACON
Wed 11:04:52 AM 38.8000 -77.4333 360° North 174 200 2,800 -600 Descending Potomac TRACON
Wed 11:05:52 AM 38.8500 -77.4333 360° North 169 194 1,800 -895 Descending Potomac TRACON
Wed 11:06:46 AM 38.8833 -77.4333 360° North 148 170 1,100 -678 Descending Potomac TRACON
Wed 11:07:47 AM 38.9167 -77.4333 360° North 111 128 500 -590 Descending Potomac TRACON
Wed 11:09:00 AM 38.9474 -77.4599 North  Level Estimated
Wed 11:16:00 AM 38.9474 -77.4599 195° South  Level Estimated
Wed 11:17:00 AM 38.9474 -77.4599 195° South  Level Estimated
Wed 11:18:00 AM 38.9474 -77.4599 195° South  Level Estimated

Login

Don't have an account? Register now (free) for customized features, flight alerts, and more!